Observation data for Graham on 11/17/2019      Previous  Date       Current Mesonet Observations  Soil Data  Daily Summary Page  Observations in Plain Language
KGHS 170600Z 22006KT 09/04 A2997 RMK A01 T00920042  RH  072%=      5-min Rain = 0
KGHS 170605Z 22006KT 09/04 A2997 RMK A01 T00910042  RH  073%=      5-min Rain = 0
KGHS 170610Z 21006KT 09/04 A2997 RMK A01 T00890042  RH  074%=      5-min Rain = 0
KGHS 170615Z 22005KT 09/04 A2997 RMK A01 T00890042  RH  074%=      5-min Rain = 0
KGHS 170620Z 23006KT 09/04 A2996 RMK A01 T00880042  RH  074%=      5-min Rain = 0
KGHS 170625Z 23007KT 09/04 A2996 RMK A01 T00890042  RH  074%=      5-min Rain = 0
KGHS 170630Z 23006KT 09/04 A2996 RMK A01 T00890041  RH  074%=      5-min Rain = 0
KGHS 170635Z 23005KT 09/04 A2996 RMK A01 T00880042  RH  074%=      5-min Rain = 0
KGHS 170640Z 22005KT 09/04 A2997 RMK A01 T00880041  RH  074%=      5-min Rain = 0
KGHS 170645Z 23005KT 09/04 A2997 RMK A01 T00880041  RH  074%=      5-min Rain = 0
KGHS 170650Z 23005KT 09/04 A2997 RMK A01 T00870041  RH  074%=      5-min Rain = 0
KGHS 170655Z 23004KT 09/04 A2997 RMK A01 T00860041  RH  075%=      5-min Rain = 0
KGHS 170700Z 23005KT 09/04 A2997 RMK A01 T00860041  RH  075%=      5-min Rain = 0
KGHS 170705Z 23005KT 09/04 A2997 RMK A01 T00860041  RH  075%=      5-min Rain = 0
KGHS 170710Z 24005KT 09/04 A2997 RMK A01 T00850041  RH  075%=      5-min Rain = 0
KGHS 170715Z 23005KT 09/04 A2996 RMK A01 T00850041  RH  075%=      5-min Rain = 0
KGHS 170720Z 22005KT 08/04 A2996 RMK A01 T00830041  RH  076%=      5-min Rain = 0
KGHS 170725Z 24006KT 08/04 A2996 RMK A01 T00830041  RH  076%=      5-min Rain = 0
KGHS 170730Z 24006KT 08/04 A2996 RMK A01 T00830041  RH  076%=      5-min Rain = 0
KGHS 170735Z 24006KT 08/04 A2996 RMK A01 T00830040  RH  076%=      5-min Rain = 0
KGHS 170740Z 23006KT 08/04 A2996 RMK A01 T00810040  RH  077%=      5-min Rain = 0
KGHS 170745Z 24006KT 08/04 A2996 RMK A01 T00800040  RH  077%=      5-min Rain = 0
KGHS 170750Z 25006KT 08/04 A2996 RMK A01 T00800040  RH  077%=      5-min Rain = 0
KGHS 170755Z 27003KT 08/04 A2996 RMK A01 T00790039  RH  078%=      5-min Rain = 0
KGHS 170800Z 30004KT 08/04 A2996 RMK A01 T00760039  RH  079%=      5-min Rain = 0
KGHS 170805Z 28005KT 07/04 A2996 RMK A01 T00730038  RH  080%=      5-min Rain = 0
KGHS 170810Z 27006KT 07/04 A2996 RMK A01 T00720038  RH  081%=      5-min Rain = 0
KGHS 170815Z 28006KT 07/04 A2996 RMK A01 T00700037  RH  081%=      5-min Rain = 0
KGHS 170820Z 28006KT 07/04 A2996 RMK A01 T00680037  RH  082%=      5-min Rain = 0
KGHS 170825Z 28006KT 07/04 A2996 RMK A01 T00670036  RH  083%=      5-min Rain = 0
KGHS 170830Z 27007KT 07/04 A2996 RMK A01 T00650036  RH  083%=      5-min Rain = 0
KGHS 170835Z 26007KT 06/04 A2996 RMK A01 T00640037  RH  084%=      5-min Rain = 0
KGHS 170840Z 26008KT 06/04 A2996 RMK A01 T00640037  RH  084%=      5-min Rain = 0
KGHS 170845Z 27006KT 06/04 A2996 RMK A01 T00630036  RH  084%=      5-min Rain = 0
KGHS 170850Z 26007KT 06/04 A2996 RMK A01 T00610036  RH  085%=      5-min Rain = 0
KGHS 170855Z 25008KT 06/04 A2996 RMK A01 T00610036  RH  086%=      5-min Rain = 0
KGHS 170900Z 25007KT 06/04 A2996 RMK A01 T00610036  RH  085%=      5-min Rain = 0
KGHS 170905Z 27007KT 06/04 A2996 RMK A01 T00600035  RH  086%=      5-min Rain = 0
KGHS 170910Z 28008KT 06/03 A2996 RMK A01 T00570034  RH  087%=      5-min Rain = 0
KGHS 170915Z 28008KT 06/03 A2996 RMK A01 T00550033  RH  087%=      5-min Rain = 0
KGHS 170920Z 29009KT 05/03 A2996 RMK A01 T00520032  RH  088%=      5-min Rain = 0
KGHS 170925Z 28009KT 05/03 A2996 RMK A01 T00510033  RH  089%=      5-min Rain = 0
KGHS 170930Z 28010KT 05/03 A2996 RMK A01 T00520033  RH  089%=      5-min Rain = 0
KGHS 170935Z 28009KT 05/03 A2996 RMK A01 T00520033  RH  089%=      5-min Rain = 0
KGHS 170940Z 27009KT 05/03 A2996 RMK A01 T00520033  RH  090%=      5-min Rain = 0
KGHS 170945Z 28010KT 05/03 A2996 RMK A01 T00520033  RH  089%=      5-min Rain = 0
KGHS 170950Z 28011KT 05/03 A2996 RMK A01 T00510033  RH  090%=      5-min Rain = 0
KGHS 170955Z 28010KT 05/03 A2996 RMK A01 T00510033  RH  090%=      5-min Rain = 0
KGHS 171000Z 28009KT 05/03 A2996 RMK A01 T00510032  RH  089%=      5-min Rain = 0
KGHS 171005Z 29009KT 05/03 A2996 RMK A01 T00490032  RH  090%=      5-min Rain = 0
KGHS 171010Z 29009KT 05/03 A2996 RMK A01 T00490031  RH  090%=      5-min Rain = 0
KGHS 171015Z 30008KT 05/03 A2996 RMK A01 T00480031  RH  090%=      5-min Rain = 0
KGHS 171020Z 30009KT 05/03 A2997 RMK A01 T00480031  RH  091%=      5-min Rain = 0
KGHS 171025Z 31009KT 05/03 A2997 RMK A01 T00460029  RH  090%=      5-min Rain = 0
KGHS 171030Z 32010KT 04/03 A2997 RMK A01 T00430027  RH  091%=      5-min Rain = 0
KGHS 171035Z 31011KT 04/03 A2997 RMK A01 T00410027  RH  092%=      5-min Rain = 0
KGHS 171040Z 31013KT 04/03 A2997 RMK A01 T00410027  RH  092%=      5-min Rain = 0
KGHS 171045Z 31013KT 04/03 A2997 RMK A01 T00430027  RH  091%=      5-min Rain = 0
KGHS 171050Z 33015KT 05/03 A2998 RMK A01 T00450027  RH  089%=      5-min Rain = 0
KGHS 171055Z 34020G28KT 05/03 A2998 RMK A01 T00540026  RH  084%=      5-min Rain = 0
KGHS 171100Z 35024G29KT 06/03 A2997 RMK A01 T00610026  RH  080%=      5-min Rain = 0
KGHS 171105Z 36023KT 07/03 A2998 RMK A01 T00650027  RH  078%=      5-min Rain = 0
KGHS 171110Z 00022G31KT 07/03 A2998 RMK A01 T00680027  RH  076%=      5-min Rain = 0
KGHS 171115Z 01023G29KT 07/03 A2998 RMK A01 T00710027  RH  075%=      5-min Rain = 0
KGHS 171120Z 01023G29KT 07/03 A2998 RMK A01 T00720027  RH  074%=      5-min Rain = 0
KGHS 171125Z 01023G30KT 07/03 A2999 RMK A01 T00740025  RH  072%=      5-min Rain = 0
KGHS 171130Z 01025G30KT 08/02 A2999 RMK A01 T00760023  RH  070%=      5-min Rain = 0
KGHS 171135Z 01023G31KT 08/02 A2999 RMK A01 T00770022  RH  069%=      5-min Rain = 0
KGHS 171140Z 01022G28KT 08/02 A30 RMK A01 T00770020  RH  068%=      5-min Rain = 0
KGHS 171145Z 02022G27KT 08/02 A30 RMK A01 T00780018  RH  067%=      5-min Rain = 0
KGHS 171150Z 01021G26KT 08/02 A3001 RMK A01 T00790016  RH  066%=      5-min Rain = 0
KGHS 171155Z 01019G25KT 08/02 A3001 RMK A01 T00780015  RH  065%=      5-min Rain = 0
KGHS 171200Z 01020G26KT 08/01 A3002 RMK A01 T00780014  RH  065%=      5-min Rain = 0
KGHS 171205Z 01018KT 08/01 A3002 RMK A01 T00780013  RH  065%=      5-min Rain = 0
KGHS 171210Z 01019G24KT 08/01 A3002 RMK A01 T00770013  RH  064%=      5-min Rain = 0
KGHS 171215Z 01018G24KT 08/01 A3003 RMK A01 T00770012  RH  065%=      5-min Rain = 0
KGHS 171220Z 01018KT 08/01 A3003 RMK A01 T00760011  RH  064%=      5-min Rain = 0
KGHS 171225Z 01018G23KT 08/01 A3003 RMK A01 T00770010  RH  064%=      5-min Rain = 0
KGHS 171230Z 01017G22KT 08/01 A3004 RMK A01 T00770010  RH  063%=      5-min Rain = 0
KGHS 171235Z 01017G22KT 08/01 A3004 RMK A01 T00760009  RH  063%=      5-min Rain = 0
KGHS 171240Z 01017KT 08/01 A3005 RMK A01 T00760008  RH  063%=      5-min Rain = 0
KGHS 171245Z 01016KT 08/01 A3005 RMK A01 T00760008  RH  063%=      5-min Rain = 0
KGHS 171250Z 01016G21KT 08/01 A3005 RMK A01 T00770007  RH  062%=      5-min Rain = 0
KGHS 171255Z 01017G22KT 08/01 A3005 RMK A01 T00770006  RH  061%=      5-min Rain = 0
KGHS 171300Z 01016G21KT 08/01 A3005 RMK A01 T00780006  RH  061%=      5-min Rain = 0
KGHS 171305Z 01016G21KT 08/01 A3006 RMK A01 T00780006  RH  061%=      5-min Rain = 0
KGHS 171310Z 00016G21KT 08/01 A3007 RMK A01 T00780006  RH  061%=      5-min Rain = 0
KGHS 171315Z 00016G22KT 08/01 A3007 RMK A01 T00770006  RH  062%=      5-min Rain = 0
KGHS 171320Z 00017G22KT 08/01 A3008 RMK A01 T00760006  RH  062%=      5-min Rain = 0
KGHS 171325Z 01017G22KT 08/01 A3008 RMK A01 T00770006  RH  061%=      5-min Rain = 0
KGHS 171330Z 00016G21KT 08/01 A3009 RMK A01 T00780007  RH  061%=      5-min Rain = 0
KGHS 171335Z 36015G22KT 08/01 A3009 RMK A01 T00780007  RH  061%=      5-min Rain = 0
KGHS 171340Z 36014KT 08/01 A301 RMK A01 T00780007  RH  062%=      5-min Rain = 0
KGHS 171345Z 36015KT 08/01 A301 RMK A01 T00780008  RH  062%=      5-min Rain = 0
KGHS 171350Z 36016G22KT 08/01 A301 RMK A01 T00780008  RH  062%=      5-min Rain = 0
KGHS 171355Z 36016KT 08/01 A301 RMK A01 T00800009  RH  062%=      5-min Rain = 0
KGHS 171400Z 36017G22KT 08/01 A301 RMK A01 T00810009  RH  061%=      5-min Rain = 0
KGHS 171405Z 36015G21KT 08/01 A3011 RMK A01 T00820009  RH  061%=      5-min Rain = 0
KGHS 171410Z 36016G24KT 08/01 A3011 RMK A01 T00830010  RH  061%=      5-min Rain = 0
KGHS 171415Z 00017G23KT 08/01 A3011 RMK A01 T00840010  RH  061%=      5-min Rain = 0
KGHS 171420Z 01017G23KT 09/01 A3011 RMK A01 T00860011  RH  060%=      5-min Rain = 0
KGHS 171425Z 00019G27KT 09/01 A3012 RMK A01 T00870011  RH  060%=      5-min Rain = 0
KGHS 171430Z 00018G23KT 09/01 A3012 RMK A01 T00890012  RH  060%=      5-min Rain = 0
KGHS 171435Z 01019G25KT 09/01 A3012 RMK A01 T00890012  RH  059%=      5-min Rain = 0
KGHS 171440Z 01018G24KT 09/01 A3012 RMK A01 T00900013  RH  059%=      5-min Rain = 0
KGHS 171445Z 01018G25KT 09/01 A3012 RMK A01 T00920014  RH  059%=      5-min Rain = 0
KGHS 171450Z 01020G26KT 09/01 A3012 RMK A01 T00930014  RH  059%=      5-min Rain = 0
KGHS 171455Z 01019G25KT 09/02 A3013 RMK A01 T00940015  RH  058%=      5-min Rain = 0
KGHS 171500Z 01019G24KT 10/02 A3013 RMK A01 T00950015  RH  058%=      5-min Rain = 0
KGHS 171505Z 01024G29KT 10/02 A3013 RMK A01 T00960015  RH  058%=      5-min Rain = 0
KGHS 171510Z 01021G28KT 10/02 A3013 RMK A01 T00970016  RH  058%=      5-min Rain = 0
KGHS 171515Z 01021G30KT 10/02 A3013 RMK A01 T01000016  RH  057%=      5-min Rain = 0
KGHS 171520Z 01021G27KT 10/02 A3013 RMK A01 T01010017  RH  057%=      5-min Rain = 0
KGHS 171525Z 01018G25KT 10/02 A3013 RMK A01 T01040019  RH  056%=      5-min Rain = 0
KGHS 171530Z 01023G30KT 11/02 A3014 RMK A01 T01050017  RH  055%=      5-min Rain = 0
KGHS 171535Z 02023G30KT 11/02 A3014 RMK A01 T01060017  RH  055%=      5-min Rain = 0
KGHS 171540Z 02019G25KT 11/02 A3014 RMK A01 T01090019  RH  055%=      5-min Rain = 0
KGHS 171545Z 02020G27KT 11/02 A3014 RMK A01 T01110019  RH  054%=      5-min Rain = 0
KGHS 171550Z 01023G28KT 11/02 A3014 RMK A01 T01100018  RH  054%=      5-min Rain = 0
KGHS 171555Z 01022G29KT 11/02 A3014 RMK A01 T01090018  RH  054%=      5-min Rain = 0
KGHS 171600Z 02019G26KT 11/02 A3014 RMK A01 T01110019  RH  054%=      5-min Rain = 0
KGHS 171605Z 01020G26KT 12/02 A3015 RMK A01 T01150019  RH  053%=      5-min Rain = 0
KGHS 171610Z 02020G27KT 12/02 A3014 RMK A01 T01150019  RH  052%=      5-min Rain = 0
KGHS 171615Z 02020G26KT 12/02 A3014 RMK A01 T01160019  RH  052%=      5-min Rain = 0
KGHS 171620Z 01019G26KT 12/02 A3014 RMK A01 T01180019  RH  052%=      5-min Rain = 0
KGHS 171625Z 01019G27KT 12/02 A3014 RMK A01 T01180020  RH  052%=      5-min Rain = 0
KGHS 171630Z 02021G26KT 12/02 A3014 RMK A01 T01190019  RH  051%=      5-min Rain = 0
KGHS 171635Z 02020G25KT 12/02 A3014 RMK A01 T01200019  RH  051%=      5-min Rain = 0
KGHS 171640Z 02020G28KT 12/02 A3015 RMK A01 T01200018  RH  050%=      5-min Rain = 0
KGHS 171645Z 02016G23KT 12/02 A3015 RMK A01 T01240021  RH  050%=      5-min Rain = 0
KGHS 171650Z 03019G25KT 12/02 A3015 RMK A01 T01240019  RH  050%=      5-min Rain = 0
KGHS 171655Z 02020G25KT 13/02 A3015 RMK A01 T01250019  RH  049%=      5-min Rain = 0
KGHS 171700Z 02018G26KT 13/02 A3015 RMK A01 T01260019  RH  049%=      5-min Rain = 0
KGHS 171705Z 03018G23KT 13/02 A3015 RMK A01 T01270019  RH  049%=      5-min Rain = 0
KGHS 171710Z 02016KT 13/02 A3016 RMK A01 T01280020  RH  048%=      5-min Rain = 0
KGHS 171715Z 03016G22KT 13/02 A3016 RMK A01 T01310021  RH  048%=      5-min Rain = 0
KGHS 171720Z 02016G21KT 13/02 A3015 RMK A01 T01300020  RH  048%=      5-min Rain = 0
KGHS 171725Z 02018G23KT 13/02 A3015 RMK A01 T01310019  RH  047%=      5-min Rain = 0
KGHS 171730Z 02015KT 13/02 A3015 RMK A01 T01310020  RH  048%=      5-min Rain = 0
KGHS 171735Z 02016KT 13/02 A3015 RMK A01 T01330021  RH  047%=      5-min Rain = 0
KGHS 171740Z 02016G21KT 13/02 A3014 RMK A01 T01340020  RH  047%=      5-min Rain = 0
KGHS 171745Z 03015G21KT 13/02 A3014 RMK A01 T01340020  RH  047%=      5-min Rain = 0
KGHS 171750Z 02016KT 13/02 A3014 RMK A01 T01340020  RH  046%=      5-min Rain = 0
KGHS 171755Z 03013G18KT 14/02 A3014 RMK A01 T01350021  RH  047%=      5-min Rain = 0
KGHS 171800Z 03014KT 14/02 A3014 RMK A01 T01370021  RH  046%=      5-min Rain = 0
KGHS 171805Z 02013G18KT 14/02 A3014 RMK A01 T01370021  RH  046%=      5-min Rain = 0
KGHS 171810Z 01015G20KT 14/02 A3014 RMK A01 T01390020  RH  045%=      5-min Rain = 0
KGHS 171815Z 02011G18KT 14/02 A3014 RMK A01 T01410020  RH  045%=      5-min Rain = 0
KGHS 171820Z 00014KT 14/02 A3014 RMK A01 T01410019  RH  044%=      5-min Rain = 0
KGHS 171825Z 02010G16KT 14/02 A3013 RMK A01 T01420021  RH  045%=      5-min Rain = 0
KGHS 171830Z 03010G16KT 14/02 A3013 RMK A01 T01430020  RH  044%=      5-min Rain = 0
KGHS 171835Z 02011KT 14/02 A3013 RMK A01 T01430020  RH  044%=      5-min Rain = 0
KGHS 171840Z 02012G17KT 15/02 A3013 RMK A01 T01450020  RH  043%=      5-min Rain = 0
KGHS 171845Z 02011G17KT 14/02 A3013 RMK A01 T01440019  RH  043%=      5-min Rain = 0
KGHS 171850Z 01010G15KT 15/02 A3013 RMK A01 T01450020  RH  044%=      5-min Rain = 0
KGHS 171855Z 02012G17KT 15/02 A3012 RMK A01 T01480020  RH  043%=      5-min Rain = 0
KGHS 171900Z 02012KT 15/02 A3012 RMK A01 T01480019  RH  042%=      5-min Rain = 0
KGHS 171905Z 01011G16KT 15/02 A3012 RMK A01 T01490020  RH  042%=      5-min Rain = 0
KGHS 171910Z 01010KT 15/02 A3012 RMK A01 T01510020  RH  042%=      5-min Rain = 0
KGHS 171915Z 00010G16KT 15/02 A3012 RMK A01 T01520020  RH  041%=      5-min Rain = 0
KGHS 171920Z 02012G17KT 15/02 A3012 RMK A01 T01510017  RH  041%=      5-min Rain = 0
KGHS 171925Z 02010G15KT 15/02 A3012 RMK A01 T01510018  RH  041%=      5-min Rain = 0
KGHS 171930Z 02011G17KT 15/02 A3012 RMK A01 T01540018  RH  040%=      5-min Rain = 0
KGHS 171935Z 01011G16KT 15/02 A3012 RMK A01 T01530018  RH  041%=      5-min Rain = 0
KGHS 171940Z 01010G15KT 16/02 A3011 RMK A01 T01560021  RH  041%=      5-min Rain = 0
KGHS 171945Z 01012G17KT 16/02 A3011 RMK A01 T01580020  RH  040%=      5-min Rain = 0
KGHS 171950Z 00014G20KT 16/02 A301 RMK A01 T01580019  RH  039%=      5-min Rain = 0
KGHS 171955Z 01011G18KT 16/02 A301 RMK A01 T01600019  RH  039%=      5-min Rain = 0
KGHS 172000Z 01012G19KT 16/02 A3011 RMK A01 T01580018  RH  039%=      5-min Rain = 0
KGHS 172005Z 00010G16KT 16/02 A3011 RMK A01 T01610019  RH  039%=      5-min Rain = 0
KGHS 172010Z 01011KT 16/02 A3011 RMK A01 T01610018  RH  039%=      5-min Rain = 0
KGHS 172015Z 35010G17KT 16/02 A3011 RMK A01 T01620019  RH  039%=      5-min Rain = 0
KGHS 172020Z 02010KT 16/02 A3011 RMK A01 T01630019  RH  038%=      5-min Rain = 0
KGHS 172025Z 02011KT 16/02 A3011 RMK A01 T01630018  RH  038%=      5-min Rain = 0
KGHS 172030Z 03011KT 16/02 A301 RMK A01 T01610018  RH  039%=      5-min Rain = 0
KGHS 172035Z 03010KT 16/02 A301 RMK A01 T01620018  RH  039%=      5-min Rain = 0
KGHS 172040Z 03011KT 16/02 A301 RMK A01 T01640016  RH  037%=      5-min Rain = 0
KGHS 172045Z 03010G15KT 16/02 A301 RMK A01 T01620017  RH  038%=      5-min Rain = 0
KGHS 172050Z 01009G15KT 17/02 A301 RMK A01 T01650018  RH  038%=      5-min Rain = 0
KGHS 172055Z 02011G16KT 16/02 A3009 RMK A01 T01640015  RH  037%=      5-min Rain = 0
KGHS 172100Z 02011G16KT 16/02 A3009 RMK A01 T01610016  RH  038%=      5-min Rain = 0
KGHS 172105Z 01007KT 16/01 A3009 RMK A01 T01600014  RH  038%=      5-min Rain = 0
KGHS 172110Z 01007KT 16/02 A3009 RMK A01 T01620015  RH  038%=      5-min Rain = 0
KGHS 172115Z 04008KT 16/01 A3009 RMK A01 T01630011  RH  036%=      5-min Rain = 0
KGHS 172120Z 03008KT 16/01 A3008 RMK A01 T01630010  RH  036%=      5-min Rain = 0
KGHS 172125Z 04008KT 16/01 A3008 RMK A01 T01640014  RH  037%=      5-min Rain = 0
KGHS 172130Z 02007KT 16/01 A3008 RMK A01 T01640014  RH  037%=      5-min Rain = 0
KGHS 172135Z 02006KT 16/01 A3008 RMK A01 T01640014  RH  037%=      5-min Rain = 0
KGHS 172140Z 04009G14KT 17/01 A3008 RMK A01 T01650013  RH  036%=      5-min Rain = 0
KGHS 172145Z 03008KT 16/01 A3008 RMK A01 T01640013  RH  037%=      5-min Rain = 0
KGHS 172150Z 04008KT 16/01 A3008 RMK A01 T01630012  RH  036%=      5-min Rain = 0
KGHS 172155Z 05006KT 16/01 A3008 RMK A01 T01640014  RH  037%=      5-min Rain = 0
KGHS 172200Z 05009KT 16/02 A3008 RMK A01 T01640015  RH  037%=      5-min Rain = 0
KGHS 172205Z 03007KT 16/01 A3008 RMK A01 T01620014  RH  037%=      5-min Rain = 0
KGHS 172210Z 01007KT 16/01 A3008 RMK A01 T01620014  RH  037%=      5-min Rain = 0
KGHS 172215Z 04003KT 16/01 A3008 RMK A01 T01620014  RH  037%=      5-min Rain = 0
KGHS 172220Z 02004KT 16/02 A3008 RMK A01 T01640015  RH  037%=      5-min Rain = 0
KGHS 172225Z 00006KT 16/01 A3008 RMK A01 T01630014  RH  037%=      5-min Rain = 0
KGHS 172230Z 03007KT 16/02 A3008 RMK A01 T01620016  RH  038%=      5-min Rain = 0
KGHS 172235Z 04006KT 16/02 A3008 RMK A01 T01610016  RH  038%=      5-min Rain = 0
KGHS 172240Z 02005KT 16/02 A3008 RMK A01 T01600015  RH  038%=      5-min Rain = 0
KGHS 172245Z 01007KT 16/01 A3007 RMK A01 T01590014  RH  038%=      5-min Rain = 0
KGHS 172250Z 01008KT 16/02 A3007 RMK A01 T01580015  RH  039%=      5-min Rain = 0
KGHS 172255Z 02007KT 16/02 A3007 RMK A01 T01570015  RH  039%=      5-min Rain = 0
KGHS 172300Z 03005KT 16/02 A3008 RMK A01 T01570016  RH  039%=      5-min Rain = 0
KGHS 172305Z 03004KT 16/02 A3008 RMK A01 T01550016  RH  039%=      5-min Rain = 0
KGHS 172310Z 03004KT 15/02 A3008 RMK A01 T01540016  RH  040%=      5-min Rain = 0
KGHS 172315Z 02004KT 15/02 A3008 RMK A01 T01530017  RH  040%=      5-min Rain = 0
KGHS 172320Z 03004KT 15/02 A3008 RMK A01 T01520017  RH  041%=      5-min Rain = 0
KGHS 172325Z 02004KT 15/02 A3008 RMK A01 T01500016  RH  041%=      5-min Rain = 0
KGHS 172330Z 01004KT 15/02 A3009 RMK A01 T01480015  RH  041%=      5-min Rain = 0
KGHS 172335Z 01004KT 15/02 A3009 RMK A01 T01470015  RH  041%=      5-min Rain = 0
KGHS 172340Z 01005KT 15/02 A3008 RMK A01 T01460015  RH  042%=      5-min Rain = 0
KGHS 172345Z 00005KT 14/02 A3008 RMK A01 T01440015  RH  042%=      5-min Rain = 0
KGHS 172350Z 36005KT 14/02 A3009 RMK A01 T01430016  RH  043%=      5-min Rain = 0
KGHS 172355Z 35005KT 14/02 A3009 RMK A01 T01420016  RH  043%=      5-min Rain = 0
KGHS 180000Z 35005KT 14/02 A3009 RMK A01 T01420017  RH  043%=      5-min Rain = 0
KGHS 180005Z 00005KT 14/02 A3009 RMK A01 T01410018  RH  044%=      5-min Rain = 0
KGHS 180010Z 01004KT 14/02 A3009 RMK A01 T01390018  RH  045%=      5-min Rain = 0
KGHS 180015Z 01004KT 14/02 A3009 RMK A01 T01390017  RH  044%=      5-min Rain = 0
KGHS 180020Z 01004KT 14/02 A3009 RMK A01 T01390017  RH  044%=      5-min Rain = 0
KGHS 180025Z 01005KT 14/02 A3009 RMK A01 T01380017  RH  044%=      5-min Rain = 0
KGHS 180030Z 02005KT 14/02 A301 RMK A01 T01390017  RH  044%=      5-min Rain = 0
KGHS 180035Z 02005KT 14/02 A301 RMK A01 T01380017  RH  044%=      5-min Rain = 0
KGHS 180040Z 02005KT 14/02 A301 RMK A01 T01390016  RH  044%=      5-min Rain = 0
KGHS 180045Z 02005KT 14/02 A301 RMK A01 T01390016  RH  044%=      5-min Rain = 0
KGHS 180050Z 02005KT 14/02 A301 RMK A01 T01400015  RH  043%=      5-min Rain = 0
KGHS 180055Z 01005KT 14/02 A301 RMK A01 T01360017  RH  045%=      5-min Rain = 0
KGHS 180100Z 01005KT 13/02 A3011 RMK A01 T01270019  RH  048%=      5-min Rain = 0
KGHS 180105Z 00005KT 12/02 A3011 RMK A01 T01240018  RH  049%=      5-min Rain = 0
KGHS 180110Z 01005KT 13/02 A3011 RMK A01 T01250016  RH  048%=      5-min Rain = 0
KGHS 180115Z 01004KT 13/02 A3011 RMK A01 T01250016  RH  048%=      5-min Rain = 0
KGHS 180120Z 00004KT 12/02 A301 RMK A01 T01230016  RH  049%=      5-min Rain = 0
KGHS 180125Z 36005KT 12/02 A301 RMK A01 T01220017  RH  049%=      5-min Rain = 0
KGHS 180130Z 00006KT 12/02 A301 RMK A01 T01210018  RH  050%=      5-min Rain = 0
KGHS 180135Z 00006KT 12/02 A301 RMK A01 T01190018  RH  051%=      5-min Rain = 0
KGHS 180140Z 00006KT 11/02 A301 RMK A01 T01140019  RH  053%=      5-min Rain = 0
KGHS 180145Z 36005KT 11/02 A3011 RMK A01 T01100020  RH  054%=      5-min Rain = 0
KGHS 180150Z 35005KT 11/02 A3011 RMK A01 T01070019  RH  055%=      5-min Rain = 0
KGHS 180155Z 35006KT 11/02 A3011 RMK A01 T01070018  RH  055%=      5-min Rain = 0
KGHS 180200Z 00005KT 11/02 A3011 RMK A01 T01090017  RH  054%=      5-min Rain = 0
KGHS 180205Z 01006KT 11/02 A301 RMK A01 T01080018  RH  055%=      5-min Rain = 0
KGHS 180210Z 00006KT 11/02 A3011 RMK A01 T01060018  RH  055%=      5-min Rain = 0
KGHS 180215Z 35006KT 10/02 A3011 RMK A01 T01030018  RH  057%=      5-min Rain = 0
KGHS 180220Z 34007KT 10/02 A3011 RMK A01 T00970018  RH  059%=      5-min Rain = 0
KGHS 180225Z 35007KT 10/02 A3011 RMK A01 T00950018  RH  060%=      5-min Rain = 0
KGHS 180230Z 35007KT 09/02 A3011 RMK A01 T00940018  RH  060%=      5-min Rain = 0
KGHS 180235Z 00007KT 09/02 A3011 RMK A01 T00940017  RH  060%=      5-min Rain = 0
KGHS 180240Z 02007KT 10/02 A3011 RMK A01 T00980016  RH  058%=      5-min Rain = 0
KGHS 180245Z 02007KT 11/01 A3011 RMK A01 T01070014  RH  054%=      5-min Rain = 0
KGHS 180250Z 02007KT 12/01 A3011 RMK A01 T01160013  RH  050%=      5-min Rain = 0
KGHS 180255Z 03006KT 12/01 A3011 RMK A01 T01210012  RH  048%=      5-min Rain = 0
KGHS 180300Z 04006KT 12/01 A3011 RMK A01 T01200013  RH  049%=      5-min Rain = 0
KGHS 180305Z 05004KT 12/01 A3011 RMK A01 T01180013  RH  049%=      5-min Rain = 0
KGHS 180310Z 05003KT 11/01 A3012 RMK A01 T01130013  RH  051%=      5-min Rain = 0
KGHS 180315Z 05004KT 11/01 A3012 RMK A01 T01130013  RH  051%=      5-min Rain = 0
KGHS 180320Z 06003KT 11/01 A3012 RMK A01 T01140012  RH  050%=      5-min Rain = 0
KGHS 180325Z 15002KT 11/01 A3012 RMK A01 T01110013  RH  052%=      5-min Rain = 0
KGHS 180330Z 14002KT 11/01 A3012 RMK A01 T01070014  RH  053%=      5-min Rain = 0
KGHS 180335Z 14002KT 10/02 A3012 RMK A01 T01040015  RH  055%=      5-min Rain = 0
KGHS 180340Z 12002KT 10/01 A3011 RMK A01 T01030014  RH  055%=      5-min Rain = 0
KGHS 180345Z 12003KT 11/02 A3011 RMK A01 T01060015  RH  054%=      5-min Rain = 0
KGHS 180350Z 14002KT 11/01 A3011 RMK A01 T01080014  RH  053%=      5-min Rain = 0
KGHS 180355Z 17002KT 11/01 A3011 RMK A01 T01090014  RH  053%=      5-min Rain = 0
KGHS 180400Z 18002KT 11/02 A3011 RMK A01 T01070015  RH  054%=      5-min Rain = 0
KGHS 180405Z 17002KT 10/02 A3011 RMK A01 T01030015  RH  055%=      5-min Rain = 0
KGHS 180410Z 18003KT 10/02 A3011 RMK A01 T00960015  RH  058%=      5-min Rain = 0
KGHS 180415Z 20003KT 09/02 A3011 RMK A01 T00920015  RH  059%=      5-min Rain = 0
KGHS 180420Z 21003KT 08/02 A3011 RMK A01 T00790016  RH  065%=      5-min Rain = 0
KGHS 180425Z 20003KT 07/02 A3011 RMK A01 T00690015  RH  070%=      5-min Rain = 0
KGHS 180430Z 21003KT 06/01 A3011 RMK A01 T00640014  RH  072%=      5-min Rain = 0
KGHS 180435Z 21004KT 06/02 A301 RMK A01 T00600015  RH  073%=      5-min Rain = 0
KGHS 180440Z 22002KT 06/02 A301 RMK A01 T00590015  RH  075%=      5-min Rain = 0
KGHS 180445Z 19003KT 06/02 A301 RMK A01 T00590016  RH  075%=      5-min Rain = 0
KGHS 180450Z 20004KT 06/02 A301 RMK A01 T00610016  RH  074%=      5-min Rain = 0
KGHS 180455Z 21003KT 07/02 A301 RMK A01 T00650016  RH  072%=      5-min Rain = 0
KGHS 180500Z 22003KT 06/02 A301 RMK A01 T00630016  RH  073%=      5-min Rain = 0
KGHS 180505Z 21003KT 06/02 A301 RMK A01 T00590017  RH  075%=      5-min Rain = 0
KGHS 180510Z 21003KT 06/02 A3009 RMK A01 T00580017  RH  076%=      5-min Rain = 0
KGHS 180515Z 21003KT 06/02 A3009 RMK A01 T00580017  RH  076%=      5-min Rain = 0
KGHS 180520Z 19002KT 06/02 A3009 RMK A01 T00600017  RH  075%=      5-min Rain = 0
KGHS 180525Z 21003KT 06/02 A3009 RMK A01 T00640016  RH  073%=      5-min Rain = 0
KGHS 180530Z 21002KT 06/02 A3009 RMK A01 T00640017  RH  073%=      5-min Rain = 0
KGHS 180535Z 20003KT 07/02 A3009 RMK A01 T00650016  RH  072%=      5-min Rain = 0
KGHS 180540Z 20004KT 06/02 A3009 RMK A01 T00640016  RH  072%=      5-min Rain = 0
KGHS 180545Z 21004KT 06/02 A3009 RMK A01 T00620015  RH  073%=      5-min Rain = 0
KGHS 180550Z 21004KT 06/02 A3009 RMK A01 T00610016  RH  074%=      5-min Rain = 0
KGHS 180555Z 21004KT 06/02 A3009 RMK A01 T00600015  RH  074%=      5-min Rain = 0

Page generated in 0.0102 seconds.